N421AS KPWM-KFOK
Flight info
| Callsign | N421AS |
|---|---|
| Flight time | 0h 44m |
| Altitude | 36000 |
| Route | LFV SEY ARCAV ORCHA CCC |
| Aircraft | CL60/M-SADE3FGHIJ3J4J7P2RWXY/HB1D1 |
Departure
| Time | 2026-05-04 20:29 |
|---|---|
| Airport | Portland International Jetport (KPWM) |
Arrival
| Time | 2026-05-04 21:13 |
|---|---|
| Airport | Francis S Gabreski Airport (KFOK) |
| Time | Latitude | Longitude | Altitude | Speed | Heading |
|---|---|---|---|---|---|
| 2026-05-04 19:37 | 43.64195 | -70.30762 | 85 ft | 0 kts | 302° |
| 2026-05-04 20:25 | 43.64205 | -70.30776 | 85 ft | 3 kts | 341° |
| 2026-05-04 20:25 | 43.64233 | -70.30746 | 85 ft | 7 kts | 47° |
| 2026-05-04 20:25 | 43.64240 | -70.30675 | 85 ft | 10 kts | 133° |
| 2026-05-04 20:25 | 43.64211 | -70.30563 | 85 ft | 14 kts | 106° |
| 2026-05-04 20:26 | 43.64181 | -70.30422 | 85 ft | 15 kts | 106° |
| 2026-05-04 20:26 | 43.64131 | -70.30310 | 85 ft | 13 kts | 154° |
| 2026-05-04 20:26 | 43.64115 | -70.30209 | 85 ft | 13 kts | 72° |
| 2026-05-04 20:26 | 43.64154 | -70.30077 | 85 ft | 12 kts | 45° |
| 2026-05-04 20:27 | 43.64225 | -70.29983 | 85 ft | 15 kts | 43° |
| 2026-05-04 20:27 | 43.64290 | -70.29926 | 85 ft | 10 kts | 5° |
| 2026-05-04 20:27 | 43.64321 | -70.29922 | 85 ft | 0 kts | 5° |
| 2026-05-04 20:28 | 43.64322 | -70.29922 | 85 ft | 0 kts | 5° |
| 2026-05-04 20:28 | 43.64355 | -70.29918 | 85 ft | 6 kts | 5° |
| 2026-05-04 20:28 | 43.64406 | -70.29932 | 85 ft | 6 kts | 282° |
| 2026-05-04 20:29 | 43.64420 | -70.30133 | 85 ft | 62 kts | 275° |
| 2026-05-04 20:29 | 43.64490 | -70.31203 | 161 ft | 151 kts | 275° |
| 2026-05-04 20:29 | 43.64582 | -70.32739 | 1008 ft | 171 kts | 274° |
| 2026-05-04 20:29 | 43.64719 | -70.34433 | 1790 ft | 187 kts | 275° |
| 2026-05-04 20:30 | 43.64885 | -70.36208 | 2297 ft | 185 kts | 275° |
| 2026-05-04 20:30 | 43.65050 | -70.37952 | 2477 ft | 179 kts | 275° |
| 2026-05-04 20:30 | 43.65218 | -70.39648 | 2655 ft | 177 kts | 276° |
| 2026-05-04 20:30 | 43.65387 | -70.41325 | 2818 ft | 183 kts | 276° |
| 2026-05-04 20:31 | 43.65573 | -70.43269 | 3175 ft | 217 kts | 276° |
| 2026-05-04 20:31 | 43.65769 | -70.45342 | 4089 ft | 229 kts | 276° |
| 2026-05-04 20:31 | 43.65976 | -70.47584 | 5005 ft | 242 kts | 276° |
| 2026-05-04 20:31 | 43.66187 | -70.49892 | 5891 ft | 245 kts | 276° |
| 2026-05-04 20:32 | 43.66399 | -70.52210 | 6772 ft | 246 kts | 276° |
| 2026-05-04 20:32 | 43.66602 | -70.54550 | 7654 ft | 247 kts | 276° |
| 2026-05-04 20:32 | 43.66789 | -70.56902 | 8536 ft | 249 kts | 276° |
| 2026-05-04 20:32 | 43.66964 | -70.59321 | 9445 ft | 251 kts | 276° |
| 2026-05-04 20:33 | 43.67119 | -70.61687 | 10296 ft | 254 kts | 276° |
| 2026-05-04 20:33 | 43.67282 | -70.64236 | 10960 ft | 280 kts | 276° |
| 2026-05-04 20:33 | 43.67461 | -70.67058 | 11592 ft | 307 kts | 275° |
| 2026-05-04 20:33 | 43.67647 | -70.70014 | 12442 ft | 317 kts | 275° |
| 2026-05-04 20:34 | 43.67842 | -70.73114 | 13318 ft | 325 kts | 275° |
| 2026-05-04 20:34 | 43.67865 | -70.76240 | 14201 ft | 331 kts | 262° |
| 2026-05-04 20:34 | 43.67084 | -70.79263 | 15100 ft | 344 kts | 246° |
| 2026-05-04 20:34 | 43.65649 | -70.81940 | 15984 ft | 357 kts | 227° |
| 2026-05-04 20:35 | 43.63484 | -70.83754 | 16888 ft | 377 kts | 206° |
| 2026-05-04 20:35 | 43.60849 | -70.84364 | 17661 ft | 400 kts | 185° |
| 2026-05-04 20:35 | 43.58079 | -70.83619 | 18427 ft | 417 kts | 166° |
| 2026-05-04 20:35 | 43.55302 | -70.82175 | 19184 ft | 422 kts | 163° |
| 2026-05-04 20:36 | 43.52550 | -70.80715 | 19921 ft | 425 kts | 163° |
| 2026-05-04 20:36 | 43.49788 | -70.79268 | 20686 ft | 429 kts | 163° |
| 2026-05-04 20:36 | 43.46982 | -70.77799 | 21442 ft | 434 kts | 163° |
| 2026-05-04 20:36 | 43.44130 | -70.76308 | 22212 ft | 441 kts | 162° |
| 2026-05-04 20:37 | 43.41238 | -70.74797 | 22988 ft | 447 kts | 162° |
| 2026-05-04 20:37 | 43.38320 | -70.73274 | 23720 ft | 453 kts | 162° |
| 2026-05-04 20:37 | 43.35348 | -70.71725 | 24367 ft | 461 kts | 162° |
| 2026-05-04 20:37 | 43.32296 | -70.70136 | 25058 ft | 467 kts | 162° |
| 2026-05-04 20:38 | 43.29277 | -70.68565 | 25724 ft | 472 kts | 161° |
| 2026-05-04 20:38 | 43.26182 | -70.66957 | 26378 ft | 475 kts | 162° |
| 2026-05-04 20:38 | 43.23101 | -70.65357 | 26948 ft | 480 kts | 161° |
| 2026-05-04 20:38 | 43.19944 | -70.63720 | 27457 ft | 485 kts | 161° |
| 2026-05-04 20:39 | 43.16784 | -70.62083 | 27961 ft | 490 kts | 162° |
| 2026-05-04 20:39 | 43.13579 | -70.60426 | 28508 ft | 493 kts | 161° |
| 2026-05-04 20:39 | 43.10358 | -70.58761 | 28993 ft | 497 kts | 161° |
| 2026-05-04 20:39 | 43.07092 | -70.57076 | 29443 ft | 500 kts | 161° |
| 2026-05-04 20:40 | 43.03840 | -70.55398 | 29995 ft | 501 kts | 161° |
| 2026-05-04 20:40 | 43.00577 | -70.53717 | 30621 ft | 499 kts | 161° |
| 2026-05-04 20:40 | 42.97292 | -70.52026 | 31288 ft | 496 kts | 161° |
| 2026-05-04 20:40 | 42.94038 | -70.50353 | 31858 ft | 493 kts | 162° |
| 2026-05-04 20:41 | 42.90774 | -70.48677 | 32425 ft | 490 kts | 162° |
| 2026-05-04 20:41 | 42.87545 | -70.47021 | 32915 ft | 488 kts | 162° |
| 2026-05-04 20:41 | 42.84298 | -70.45359 | 33369 ft | 487 kts | 162° |
| 2026-05-04 20:41 | 42.81100 | -70.43723 | 33764 ft | 487 kts | 162° |
| 2026-05-04 20:42 | 42.77893 | -70.42084 | 34152 ft | 485 kts | 162° |
| 2026-05-04 20:42 | 42.74720 | -70.40466 | 34538 ft | 483 kts | 162° |
| 2026-05-04 20:42 | 42.71585 | -70.38868 | 34881 ft | 482 kts | 163° |
| 2026-05-04 20:42 | 42.68430 | -70.37260 | 35227 ft | 478 kts | 163° |
| 2026-05-04 20:43 | 42.65344 | -70.35690 | 35572 ft | 476 kts | 163° |
| 2026-05-04 20:43 | 42.62166 | -70.34077 | 35720 ft | 479 kts | 164° |
| 2026-05-04 20:43 | 42.55852 | -70.30880 | 35786 ft | 490 kts | 164° |
| 2026-05-04 20:44 | 42.49410 | -70.27621 | 35835 ft | 495 kts | 164° |
| 2026-05-04 20:44 | 42.42941 | -70.24355 | 35850 ft | 495 kts | 164° |
| 2026-05-04 20:45 | 42.36457 | -70.21087 | 35876 ft | 494 kts | 164° |
| 2026-05-04 20:45 | 42.30068 | -70.17874 | 35868 ft | 492 kts | 163° |
| 2026-05-04 20:46 | 42.23636 | -70.14646 | 35885 ft | 490 kts | 164° |
| 2026-05-04 20:46 | 42.17147 | -70.11537 | 35899 ft | 485 kts | 169° |
| 2026-05-04 20:47 | 42.10567 | -70.10321 | 35903 ft | 474 kts | 185° |
| 2026-05-04 20:47 | 42.04089 | -70.11493 | 35892 ft | 463 kts | 200° |
| 2026-05-04 20:48 | 41.98258 | -70.14800 | 35907 ft | 451 kts | 215° |
| 2026-05-04 20:48 | 41.93301 | -70.19971 | 35906 ft | 443 kts | 229° |
| 2026-05-04 20:49 | 41.89469 | -70.26389 | 35903 ft | 440 kts | 238° |
| 2026-05-04 20:49 | 41.85865 | -70.33032 | 35911 ft | 439 kts | 238° |
| 2026-05-04 20:50 | 41.82230 | -70.39714 | 35902 ft | 439 kts | 238° |
| 2026-05-04 20:50 | 41.78637 | -70.46305 | 35909 ft | 440 kts | 238° |
| 2026-05-04 20:51 | 41.74999 | -70.52962 | 35908 ft | 440 kts | 238° |
| 2026-05-04 20:51 | 41.73182 | -70.56284 | 35620 ft | 443 kts | 238° |
| 2026-05-04 20:51 | 41.71377 | -70.59576 | 35174 ft | 437 kts | 238° |
| 2026-05-04 20:52 | 41.69594 | -70.62824 | 34703 ft | 433 kts | 239° |
| 2026-05-04 20:52 | 41.67812 | -70.66067 | 34196 ft | 428 kts | 238° |
| 2026-05-04 20:52 | 41.66054 | -70.69263 | 33731 ft | 424 kts | 238° |
| 2026-05-04 20:52 | 41.64288 | -70.72475 | 33194 ft | 425 kts | 239° |
| 2026-05-04 20:53 | 41.62532 | -70.75665 | 32734 ft | 424 kts | 239° |
| 2026-05-04 20:53 | 41.60780 | -70.78841 | 32267 ft | 423 kts | 239° |
| 2026-05-04 20:53 | 41.59045 | -70.81984 | 31792 ft | 421 kts | 239° |
| 2026-05-04 20:53 | 41.57302 | -70.85138 | 31318 ft | 419 kts | 239° |
| 2026-05-04 20:54 | 41.55577 | -70.88258 | 30819 ft | 422 kts | 239° |
| 2026-05-04 20:54 | 41.53811 | -70.91457 | 30341 ft | 434 kts | 239° |
| 2026-05-04 20:54 | 41.52005 | -70.94722 | 29955 ft | 443 kts | 239° |
| 2026-05-04 20:54 | 41.50158 | -70.98054 | 29589 ft | 447 kts | 238° |
| 2026-05-04 20:55 | 41.48313 | -71.01372 | 29240 ft | 446 kts | 238° |
| 2026-05-04 20:55 | 41.46460 | -71.04702 | 28894 ft | 444 kts | 238° |
| 2026-05-04 20:55 | 41.44638 | -71.07972 | 28555 ft | 442 kts | 238° |
| 2026-05-04 20:55 | 41.42783 | -71.11298 | 28204 ft | 440 kts | 238° |
| 2026-05-04 20:56 | 41.40978 | -71.14533 | 27863 ft | 438 kts | 238° |
| 2026-05-04 20:56 | 41.39153 | -71.17799 | 27521 ft | 436 kts | 238° |
| 2026-05-04 20:56 | 41.37368 | -71.20989 | 27183 ft | 433 kts | 238° |
| 2026-05-04 20:56 | 41.35571 | -71.24198 | 26823 ft | 431 kts | 238° |
| 2026-05-04 20:57 | 41.33779 | -71.27396 | 26479 ft | 428 kts | 238° |
| 2026-05-04 20:57 | 41.31996 | -71.30575 | 26131 ft | 427 kts | 238° |
| 2026-05-04 20:57 | 41.30235 | -71.33713 | 25787 ft | 425 kts | 238° |
| 2026-05-04 20:57 | 41.28466 | -71.36859 | 25433 ft | 423 kts | 238° |
| 2026-05-04 20:58 | 41.26700 | -71.39998 | 25085 ft | 422 kts | 238° |
| 2026-05-04 20:58 | 41.24956 | -71.43094 | 24749 ft | 420 kts | 238° |
| 2026-05-04 20:58 | 41.23206 | -71.46199 | 24406 ft | 419 kts | 238° |
| 2026-05-04 20:58 | 41.21450 | -71.49311 | 24052 ft | 417 kts | 238° |
| 2026-05-04 20:59 | 41.19714 | -71.52383 | 23702 ft | 415 kts | 238° |
| 2026-05-04 20:59 | 41.17995 | -71.55424 | 23111 ft | 416 kts | 238° |
| 2026-05-04 20:59 | 41.16101 | -71.58343 | 22242 ft | 417 kts | 227° |
| 2026-05-04 20:59 | 41.13907 | -71.60814 | 21342 ft | 415 kts | 225° |
| 2026-05-04 21:00 | 41.11692 | -71.63257 | 20440 ft | 411 kts | 225° |
| 2026-05-04 21:00 | 41.09533 | -71.65645 | 19546 ft | 406 kts | 224° |
| 2026-05-04 21:00 | 41.07353 | -71.68053 | 18635 ft | 402 kts | 224° |
| 2026-05-04 21:00 | 41.05188 | -71.70444 | 17752 ft | 398 kts | 224° |
| 2026-05-04 21:01 | 41.03070 | -71.72782 | 16819 ft | 395 kts | 223° |
| 2026-05-04 21:01 | 41.00948 | -71.75122 | 15930 ft | 390 kts | 224° |
| 2026-05-04 21:01 | 40.98903 | -71.77428 | 15040 ft | 385 kts | 227° |
| 2026-05-04 21:01 | 40.97281 | -71.80155 | 14145 ft | 375 kts | 243° |
| 2026-05-04 21:02 | 40.96339 | -71.83320 | 13250 ft | 365 kts | 258° |
| 2026-05-04 21:02 | 40.95956 | -71.86558 | 12330 ft | 360 kts | 264° |
| 2026-05-04 21:02 | 40.95648 | -71.89815 | 11406 ft | 354 kts | 264° |
| 2026-05-04 21:02 | 40.95337 | -71.93029 | 10706 ft | 343 kts | 264° |
| 2026-05-04 21:03 | 40.95046 | -71.96021 | 10500 ft | 322 kts | 264° |
| 2026-05-04 21:03 | 40.94765 | -71.98895 | 10281 ft | 303 kts | 264° |
| 2026-05-04 21:03 | 40.94504 | -72.01558 | 10190 ft | 284 kts | 264° |
| 2026-05-04 21:03 | 40.94254 | -72.04107 | 10039 ft | 271 kts | 264° |
| 2026-05-04 21:04 | 40.94016 | -72.06538 | 9669 ft | 264 kts | 264° |
| 2026-05-04 21:04 | 40.93782 | -72.08915 | 9215 ft | 261 kts | 264° |
| 2026-05-04 21:04 | 40.93550 | -72.11271 | 8787 ft | 259 kts | 264° |
| 2026-05-04 21:04 | 40.93320 | -72.13612 | 8287 ft | 255 kts | 264° |
| 2026-05-04 21:05 | 40.93089 | -72.15949 | 7736 ft | 254 kts | 264° |
| 2026-05-04 21:05 | 40.92860 | -72.18256 | 7182 ft | 252 kts | 263° |
| 2026-05-04 21:05 | 40.92630 | -72.20566 | 6657 ft | 249 kts | 263° |
| 2026-05-04 21:05 | 40.92405 | -72.22834 | 6095 ft | 247 kts | 263° |
| 2026-05-04 21:06 | 40.92180 | -72.25082 | 5600 ft | 243 kts | 263° |
| 2026-05-04 21:06 | 40.91962 | -72.27257 | 5325 ft | 239 kts | 262° |
| 2026-05-04 21:06 | 40.91742 | -72.29452 | 5040 ft | 241 kts | 262° |
| 2026-05-04 21:06 | 40.91779 | -72.31686 | 4768 ft | 242 kts | 283° |
| 2026-05-04 21:07 | 40.92432 | -72.33729 | 4483 ft | 237 kts | 292° |
| 2026-05-04 21:07 | 40.93126 | -72.35630 | 4213 ft | 230 kts | 291° |
| 2026-05-04 21:07 | 40.93818 | -72.37550 | 3962 ft | 222 kts | 291° |
| 2026-05-04 21:07 | 40.94471 | -72.39363 | 3720 ft | 215 kts | 291° |
| 2026-05-04 21:08 | 40.95113 | -72.41148 | 3481 ft | 209 kts | 290° |
| 2026-05-04 21:08 | 40.95722 | -72.42844 | 3256 ft | 203 kts | 290° |
| 2026-05-04 21:08 | 40.96322 | -72.44516 | 3033 ft | 197 kts | 290° |
| 2026-05-04 21:08 | 40.96818 | -72.46156 | 2835 ft | 186 kts | 276° |
| 2026-05-04 21:09 | 40.96663 | -72.47807 | 2663 ft | 176 kts | 244° |
| 2026-05-04 21:09 | 40.95936 | -72.49002 | 2672 ft | 165 kts | 224° |
| 2026-05-04 21:09 | 40.95078 | -72.50026 | 2588 ft | 165 kts | 224° |
| 2026-05-04 21:09 | 40.94281 | -72.50998 | 2376 ft | 142 kts | 224° |
| 2026-05-04 21:10 | 40.93546 | -72.51894 | 2218 ft | 143 kts | 223° |
| 2026-05-04 21:10 | 40.92822 | -72.52776 | 2030 ft | 139 kts | 223° |
| 2026-05-04 21:10 | 40.92108 | -72.53640 | 1846 ft | 139 kts | 222° |
| 2026-05-04 21:10 | 40.91423 | -72.54471 | 1679 ft | 123 kts | 222° |
| 2026-05-04 21:11 | 40.90813 | -72.55212 | 1524 ft | 117 kts | 222° |
| 2026-05-04 21:11 | 40.90213 | -72.55938 | 1345 ft | 115 kts | 221° |
| 2026-05-04 21:11 | 40.89602 | -72.56673 | 1192 ft | 121 kts | 221° |
| 2026-05-04 21:11 | 40.88984 | -72.57420 | 1031 ft | 121 kts | 221° |
| 2026-05-04 21:12 | 40.88354 | -72.58183 | 874 ft | 121 kts | 221° |
| 2026-05-04 21:12 | 40.87740 | -72.58928 | 687 ft | 119 kts | 221° |
| 2026-05-04 21:12 | 40.87130 | -72.59666 | 565 ft | 118 kts | 222° |
| 2026-05-04 21:12 | 40.86504 | -72.60425 | 388 ft | 124 kts | 221° |
| 2026-05-04 21:13 | 40.85873 | -72.61186 | 213 ft | 120 kts | 221° |
| 2026-05-04 21:13 | 40.85254 | -72.61935 | 59 ft | 114 kts | 221° |
| 2026-05-04 21:13 | 40.84751 | -72.62542 | 58 ft | 75 kts | 222° |
| 2026-05-04 21:13 | 40.84514 | -72.62828 | 60 ft | 31 kts | 223° |
| 2026-05-04 21:14 | 40.84359 | -72.63015 | 60 ft | 28 kts | 223° |
| 2026-05-04 21:14 | 40.84215 | -72.63187 | 59 ft | 27 kts | 223° |
| 2026-05-04 21:14 | 40.84075 | -72.63357 | 57 ft | 26 kts | 222° |
| 2026-05-04 21:14 | 40.83937 | -72.63524 | 55 ft | 26 kts | 222° |
| 2026-05-04 21:15 | 40.83800 | -72.63689 | 52 ft | 26 kts | 223° |
| 2026-05-04 21:15 | 40.83679 | -72.63836 | 50 ft | 16 kts | 223° |
| 2026-05-04 21:15 | 40.83681 | -72.63897 | 50 ft | 9 kts | 355° |
| 2026-05-04 21:15 | 40.83761 | -72.63902 | 51 ft | 13 kts | 358° |
| 2026-05-04 21:16 | 40.83863 | -72.63908 | 52 ft | 16 kts | 358° |
| 2026-05-04 21:16 | 40.83957 | -72.63884 | 54 ft | 12 kts | 25° |
| 2026-05-04 21:16 | 40.84052 | -72.63884 | 55 ft | 15 kts | 356° |
| 2026-05-04 21:16 | 40.84168 | -72.63889 | 58 ft | 17 kts | 358° |
| 2026-05-04 21:17 | 40.84256 | -72.63922 | 59 ft | 9 kts | 291° |
| 2026-05-04 21:17 | 40.84259 | -72.63974 | 59 ft | 5 kts | 267° |
| 2026-05-04 21:17 | 40.84259 | -72.63992 | 59 ft | 0 kts | 270° |
| 2026-05-04 21:17 | 40.84261 | -72.64007 | 59 ft | 3 kts | 287° |
| 2026-05-04 21:18 | 40.84262 | -72.64028 | 59 ft | 0 kts | 192° |